»·PEaware :: UAL393 KPDX-KGPI

UAL393 :: KPDX-KGPI

FLIGHT INFORMATION

Flight Status: Arrived
Operator:
United Airlines
More flights by this operator :: More flights under this callsign
Pilot: Jamie M. (16133)
Aircraft: BOEING 737-200
(B732)
More flights by this aircraft type
Origin: KPDX Portland Intl
United States
Destination: KGPI Glacier Park Intl
United States
More flights between these airports :: More routes between these airports
Route: +PTLD1 BTG J136 GEG V448 KILLY
File this flight plan on PilotEdge
Remarks:
Altitude:
(Current/Filed)
29,000ft
Speed:
(Current/Filed)
439kts
Departed: 20-Sep-18 02:15 PM
Arrived: 20-Sep-18 03:45 PM
Distance/Time
Traveled:
378nm/1:30
Distance/Time
To Go:
Arrived

Flight Plot

Page will automatically refresh every two minutes.

Flight plan parsing failed; only flown route is shown


Map Options




Map Legend


Flown Route
Filed Route
Departure Airport
Arrival Airport
Navaid (VOR, NDB)
Fix

Horizontal Profiles

Position Reports

Time Latitude Longitude Heading Altitude Ground
Speed
20-Sep-18 13:27 45.590216 -122.591587 209 38ft 0kts
20-Sep-18 13:28 45.590216 -122.591587 209 38ft 0kts
20-Sep-18 13:29 45.590216 -122.591587 209 38ft 0kts
20-Sep-18 13:30 45.590216 -122.591587 209 38ft 0kts
20-Sep-18 13:31 45.590216 -122.591587 209 38ft 0kts
20-Sep-18 13:32 45.590216 -122.591587 209 38ft 0kts
20-Sep-18 13:33 45.590216 -122.591587 209 38ft 0kts
20-Sep-18 13:34 45.590216 -122.591587 209 38ft 0kts
20-Sep-18 13:35 45.590216 -122.591587 209 38ft 0kts
20-Sep-18 13:36 45.590216 -122.591587 209 38ft 0kts
20-Sep-18 13:37 45.590216 -122.591587 209 38ft 0kts
20-Sep-18 13:38 45.590216 -122.591587 209 38ft 0kts
20-Sep-18 13:39 45.590216 -122.591587 209 38ft 0kts
20-Sep-18 13:40 45.590216 -122.591587 209 38ft 0kts
20-Sep-18 13:41 45.590216 -122.591587 209 38ft 0kts
20-Sep-18 13:42 45.590216 -122.591587 209 38ft 0kts
20-Sep-18 13:43 45.590216 -122.591587 209 38ft 0kts
20-Sep-18 13:44 45.590216 -122.591587 209 38ft 0kts
20-Sep-18 13:45 45.590216 -122.591587 209 38ft 0kts
20-Sep-18 13:46 45.590216 -122.591587 209 38ft 0kts
20-Sep-18 13:47 45.590216 -122.591587 209 38ft 0kts
20-Sep-18 13:48 45.590216 -122.591587 209 38ft 0kts
20-Sep-18 13:49 45.590216 -122.591587 209 38ft 0kts
20-Sep-18 13:50 45.590216 -122.591587 209 38ft 0kts
20-Sep-18 13:51 45.590216 -122.591587 209 38ft 0kts
20-Sep-18 13:52 45.590216 -122.591587 209 38ft 0kts
20-Sep-18 13:53 45.590216 -122.591587 209 38ft 0kts
20-Sep-18 13:54 45.590216 -122.591587 209 38ft 0kts
20-Sep-18 13:55 45.590216 -122.591587 209 38ft 0kts
20-Sep-18 13:56 45.590216 -122.591587 209 38ft 0kts
20-Sep-18 13:57 45.590216 -122.591587 209 38ft 0kts
20-Sep-18 13:58 45.590216 -122.591587 209 38ft 0kts
20-Sep-18 13:59 45.590216 -122.591587 209 38ft 0kts
20-Sep-18 14:00 45.590216 -122.591587 209 38ft 0kts
20-Sep-18 14:01 45.590216 -122.591587 209 38ft 0kts
20-Sep-18 14:02 45.590369 -122.591464 206 38ft 2kts
20-Sep-18 14:03 45.590709 -122.591367 175 38ft 2kts
20-Sep-18 14:04 45.591033 -122.591526 145 38ft 2kts
20-Sep-18 14:05 45.591250 -122.591868 118 38ft 0kts
20-Sep-18 14:06 45.591250 -122.591868 118 38ft 0kts
20-Sep-18 14:07 45.591250 -122.591868 118 38ft 0kts
20-Sep-18 14:08 45.591202 -122.591745 119 38ft 5kts
20-Sep-18 14:09 45.589790 -122.588332 121 38ft 22kts
20-Sep-18 14:10 45.588471 -122.582605 118 38ft 27kts
20-Sep-18 14:11 45.585690 -122.575449 119 38ft 32kts
20-Sep-18 14:12 45.582827 -122.568108 118 38ft 17kts
20-Sep-18 14:13 45.582730 -122.567460 70 38ft 0kts
20-Sep-18 14:14 45.582730 -122.567460 70 38ft 0kts
20-Sep-18 14:15 45.582730 -122.567460 70 38ft 0kts
20-Sep-18 14:16 45.583663 -122.567050 304 38ft 9kts
20-Sep-18 14:17 45.585133 -122.570846 298 38ft 85kts
20-Sep-18 14:18 45.593557 -122.592084 300 522ft 172kts
20-Sep-18 14:19 45.604598 -122.618219 298 2572ft 157kts
20-Sep-18 14:20 45.616573 -122.647135 298 4206ft 173kts
20-Sep-18 14:21 45.638664 -122.677312 347 5386ft 233kts
20-Sep-18 14:22 45.694410 -122.648474 28 8135ft 287kts
20-Sep-18 14:23 45.748450 -122.594487 39 11566ft 292kts
20-Sep-18 14:24 45.782571 -122.522855 54 13874ft 309kts
20-Sep-18 14:25 45.811406 -122.439082 62 15989ft 325kts
20-Sep-18 14:26 45.848481 -122.341651 54 18176ft 334kts
20-Sep-18 14:27 45.885081 -122.251807 54 19938ft 346kts
20-Sep-18 14:28 45.921693 -122.161289 54 21512ft 357kts
20-Sep-18 14:29 45.964037 -122.056148 54 23128ft 367kts
20-Sep-18 14:30 46.010724 -121.940007 54 23478ft 413kts
20-Sep-18 14:31 46.058532 -121.820141 55 24286ft 433kts
20-Sep-18 14:32 46.101574 -121.711483 55 25060ft 444kts
20-Sep-18 14:33 46.121422 -121.662764 54 25457ft 447kts
20-Sep-18 14:34 46.134643 -121.630131 54 25710ft 449kts
20-Sep-18 14:35 46.162904 -121.559591 54 26221ft 453kts
20-Sep-18 14:36 46.211107 -121.420381 62 27110ft 465kts
20-Sep-18 14:37 46.253570 -121.290762 58 27804ft 469kts
20-Sep-18 14:38 46.307924 -121.142902 56 28560ft 473kts
20-Sep-18 14:39 46.369478 -120.980430 56 29122ft 483kts
20-Sep-18 14:40 46.430183 -120.820012 56 29124ft 501kts
20-Sep-18 14:41 46.490717 -120.658938 56 29122ft 505kts
20-Sep-18 14:42 46.552954 -120.492139 56 29124ft 508kts
20-Sep-18 14:43 46.612910 -120.331105 57 29118ft 510kts
20-Sep-18 14:44 46.669424 -120.175165 57 29116ft 511kts
20-Sep-18 14:45 46.733474 -120.000350 57 29117ft 511kts
20-Sep-18 14:46 46.796831 -119.826682 57 29107ft 513kts
20-Sep-18 14:47 46.861613 -119.647558 57 29101ft 513kts
20-Sep-18 14:48 46.923963 -119.474619 56 29112ft 514kts
20-Sep-18 14:49 46.970464 -119.344932 57 29112ft 516kts
20-Sep-18 14:50 47.020543 -119.202474 57 29104ft 517kts
20-Sep-18 14:51 47.082982 -119.025873 57 29107ft 518kts
20-Sep-18 14:52 47.127740 -118.901293 56 29112ft 519kts
20-Sep-18 14:53 47.174223 -118.770552 57 29114ft 522kts
20-Sep-18 14:54 47.221753 -118.634909 57 29115ft 523kts
20-Sep-18 14:55 47.265824 -118.508123 57 29118ft 525kts
20-Sep-18 14:56 47.308225 -118.385390 57 29129ft 526kts
20-Sep-18 14:57 47.342404 -118.284574 58 29125ft 527kts
20-Sep-18 14:58 47.379866 -118.174072 58 29126ft 527kts
20-Sep-18 14:59 47.415912 -118.068377 57 29127ft 527kts
20-Sep-18 15:00 47.452608 -117.960531 57 29129ft 527kts
20-Sep-18 15:01 47.489236 -117.852509 57 29129ft 528kts
20-Sep-18 15:02 47.525565 -117.744652 58 29130ft 528kts
20-Sep-18 15:03 47.561983 -117.636134 57 29131ft 528kts
20-Sep-18 15:04 47.593780 -117.509153 71 29139ft 538kts
20-Sep-18 15:05 47.613896 -117.389911 71 29134ft 538kts
20-Sep-18 15:06 47.631661 -117.297125 67 29125ft 535kts
20-Sep-18 15:07 47.659295 -117.170393 68 29125ft 536kts
20-Sep-18 15:08 47.678643 -117.078247 68 29126ft 536kts
20-Sep-18 15:09 47.702971 -116.960503 68 29131ft 536kts
20-Sep-18 15:10 47.734060 -116.808608 68 29138ft 537kts
20-Sep-18 15:11 47.752038 -116.720031 68 29139ft 537kts
20-Sep-18 15:12 47.784165 -116.560342 68 29140ft 538kts
20-Sep-18 15:13 47.810768 -116.426718 68 29142ft 536kts
20-Sep-18 15:14 47.833699 -116.310275 69 28914ft 496kts
20-Sep-18 15:15 47.852420 -116.213803 69 27933ft 480kts
20-Sep-18 15:16 47.867384 -116.137524 69 26942ft 473kts
20-Sep-18 15:17 47.885105 -116.047191 70 25802ft 465kts
20-Sep-18 15:18 47.899792 -115.972114 70 24836ft 457kts
20-Sep-18 15:19 47.913012 -115.904291 70 23972ft 451kts
20-Sep-18 15:20 47.926240 -115.835957 71 23102ft 444kts
20-Sep-18 15:21 47.939929 -115.764736 71 22270ft 434kts
20-Sep-18 15:22 47.957061 -115.675927 72 21326ft 410kts
20-Sep-18 15:23 47.974598 -115.583989 72 19570ft 403kts
20-Sep-18 15:24 47.991079 -115.497032 72 18594ft 391kts
20-Sep-18 15:25 48.006756 -115.415485 73 17598ft 383kts
20-Sep-18 15:26 48.017783 -115.357757 73 16901ft 377kts
20-Sep-18 15:27 48.027349 -115.305736 75 16265ft 372kts
20-Sep-18 15:28 48.050348 -115.180955 74 14730ft 359kts
20-Sep-18 15:29 48.070053 -115.050344 79 13156ft 344kts
20-Sep-18 15:30 48.086713 -114.917255 79 12108ft 309kts
20-Sep-18 15:31 48.104271 -114.805414 73 10728ft 303kts
20-Sep-18 15:32 48.124231 -114.695217 74 10475ft 265kts
20-Sep-18 15:33 48.142483 -114.592190 75 10021ft 258kts
20-Sep-18 15:34 48.132383 -114.493445 133 10023ft 260kts
20-Sep-18 15:35 48.071331 -114.497799 213 9401ft 242kts
20-Sep-18 15:36 48.044572 -114.581452 258 8343ft 233kts
20-Sep-18 15:37 48.016671 -114.652060 183 7842ft 215kts
20-Sep-18 15:38 47.998900 -114.593990 42 7849ft 200kts
20-Sep-18 15:39 48.041674 -114.539927 39 7817ft 207kts
20-Sep-18 15:40 48.086085 -114.488435 31 7814ft 199kts
20-Sep-18 15:41 48.133639 -114.439474 31 7000ft 223kts
20-Sep-18 15:42 48.182830 -114.388407 31 5791ft 213kts
20-Sep-18 15:43 48.224569 -114.344909 32 4773ft 173kts
20-Sep-18 15:44 48.255547 -114.312497 31 4014ft 130kts
20-Sep-18 15:45 48.283676 -114.283017 30 3317ft 133kts
20-Sep-18 15:46 48.309802 -114.256387 34 2974ft 65kts
20-Sep-18 15:47 48.311979 -114.252446 93 2975ft 0kts
20-Sep-18 15:48 48.311782 -114.252096 191 2975ft 6kts
20-Sep-18 15:49 48.309734 -114.253121 179 2972ft 1kts
20-Sep-18 15:50 48.308292 -114.253318 126 2971ft 8kts
20-Sep-18 15:51 48.308146 -114.253008 125 2970ft 0kts
20-Sep-18 15:52 48.308146 -114.253008 125 2970ft 0kts
20-Sep-18 15:53 48.308146 -114.253008 125 2970ft 0kts
20-Sep-18 15:54 48.308146 -114.253008 125 2970ft 0kts
20-Sep-18 15:55 48.308146 -114.253008 125 2970ft 0kts

Navigation Log

Ident Type
Flight plan parsing failed, navigation log unavailable